Terminal Aerodrome Forecast
Issued by NWS

Home | Current Version | Previous Version | Text Only | Print | Product List | Glossary On
Versions: 1 2 3 4 5 6 7 8 9 10 11 12
000
FTAK31 PANC 191724
TAFADU
TAF
PADU 191724Z 1918/2018 11008KT P6SM BKN040
     FM200300 10012G20KT P6SM -RA BKN025
     FM200600 10016G25KT 5SM -RA BR SCT015 OVC025
     FM200900 10014G23KT 3SM RA BR BKN009=

USA.gov is the U.S. government's official web portal to all federal, state and local government web resources and services.